sensor_id;sensor_type;location;lat;lon;timestamp;temperature;humidity
13093;DHT22;6612;49.568;11.000;2022-12-07T00:01:26;8.00;70.10
13093;DHT22;6612;49.568;11.000;2022-12-07T00:03:55;8.10;69.50
13093;DHT22;6612;49.568;11.000;2022-12-07T00:06:26;8.10;69.40
13093;DHT22;6612;49.568;11.000;2022-12-07T00:08:53;8.10;69.50
13093;DHT22;6612;49.568;11.000;2022-12-07T00:11:21;8.10;69.50
13093;DHT22;6612;49.568;11.000;2022-12-07T00:13:51;8.10;69.50
13093;DHT22;6612;49.568;11.000;2022-12-07T00:16:22;8.10;69.30
13093;DHT22;6612;49.568;11.000;2022-12-07T00:18:49;8.10;69.40
13093;DHT22;6612;49.568;11.000;2022-12-07T00:21:18;8.10;69.50
13093;DHT22;6612;49.568;11.000;2022-12-07T00:23:46;8.10;69.50
13093;DHT22;6612;49.568;11.000;2022-12-07T00:26:15;8.00;69.40
13093;DHT22;6612;49.568;11.000;2022-12-07T00:28:45;8.00;69.30
13093;DHT22;6612;49.568;11.000;2022-12-07T00:31:13;8.00;69.30
13093;DHT22;6612;49.568;11.000;2022-12-07T00:33:42;8.00;69.30
13093;DHT22;6612;49.568;11.000;2022-12-07T00:36:11;8.10;69.40
13093;DHT22;6612;49.568;11.000;2022-12-07T00:38:39;8.00;69.40
13093;DHT22;6612;49.568;11.000;2022-12-07T00:41:09;8.00;69.50
13093;DHT22;6612;49.568;11.000;2022-12-07T00:43:37;8.00;69.40
13093;DHT22;6612;49.568;11.000;2022-12-07T00:46:05;7.90;69.40
13093;DHT22;6612;49.568;11.000;2022-12-07T00:48:32;8.00;69.50
13093;DHT22;6612;49.568;11.000;2022-12-07T00:51:00;7.90;69.40
13093;DHT22;6612;49.568;11.000;2022-12-07T00:53:28;8.00;69.40
13093;DHT22;6612;49.568;11.000;2022-12-07T00:55:55;7.90;69.40
13093;DHT22;6612;49.568;11.000;2022-12-07T00:58:22;8.00;69.50
13093;DHT22;6612;49.568;11.000;2022-12-07T01:00:50;7.90;69.40
13093;DHT22;6612;49.568;11.000;2022-12-07T01:03:17;7.90;69.40
13093;DHT22;6612;49.568;11.000;2022-12-07T01:05:51;7.90;69.40
13093;DHT22;6612;49.568;11.000;2022-12-07T01:08:20;7.90;69.10
13093;DHT22;6612;49.568;11.000;2022-12-07T01:10:48;7.90;69.30
13093;DHT22;6612;49.568;11.000;2022-12-07T01:13:15;7.90;69.50
13093;DHT22;6612;49.568;11.000;2022-12-07T01:15:43;7.90;70.30
13093;DHT22;6612;49.568;11.000;2022-12-07T01:18:11;7.90;69.50
13093;DHT22;6612;49.568;11.000;2022-12-07T01:20:38;7.90;69.60
13093;DHT22;6612;49.568;11.000;2022-12-07T01:23:05;7.90;69.60
13093;DHT22;6612;49.568;11.000;2022-12-07T01:25:33;7.90;70.30
13093;DHT22;6612;49.568;11.000;2022-12-07T01:28:00;7.80;69.40
13093;DHT22;6612;49.568;11.000;2022-12-07T01:30:27;7.90;69.50
13093;DHT22;6612;49.568;11.000;2022-12-07T01:32:54;7.90;69.60
13093;DHT22;6612;49.568;11.000;2022-12-07T01:35:21;7.90;69.50
13093;DHT22;6612;49.568;11.000;2022-12-07T01:37:48;7.80;69.50
13093;DHT22;6612;49.568;11.000;2022-12-07T01:40:15;7.90;69.60
13093;DHT22;6612;49.568;11.000;2022-12-07T01:42:43;7.80;69.50
13093;DHT22;6612;49.568;11.000;2022-12-07T01:45:44;7.80;69.40
13093;DHT22;6612;49.568;11.000;2022-12-07T01:48:14;7.80;68.60
13093;DHT22;6612;49.568;11.000;2022-12-07T01:50:43;7.80;69.40
13093;DHT22;6612;49.568;11.000;2022-12-07T01:53:11;7.80;69.50
13093;DHT22;6612;49.568;11.000;2022-12-07T01:55:42;7.80;69.50
13093;DHT22;6612;49.568;11.000;2022-12-07T01:58:12;7.80;69.40
13093;DHT22;6612;49.568;11.000;2022-12-07T02:00:40;7.80;69.30
13093;DHT22;6612;49.568;11.000;2022-12-07T02:03:11;7.80;69.40
13093;DHT22;6612;49.568;11.000;2022-12-07T02:05:41;7.80;69.30
13093;DHT22;6612;49.568;11.000;2022-12-07T02:08:09;7.80;69.50
13093;DHT22;6612;49.568;11.000;2022-12-07T02:10:37;7.80;69.50
13093;DHT22;6612;49.568;11.000;2022-12-07T02:13:07;7.80;69.60
13093;DHT22;6612;49.568;11.000;2022-12-07T02:15:47;7.80;69.50
13093;DHT22;6612;49.568;11.000;2022-12-07T02:18:25;7.80;69.20
13093;DHT22;6612;49.568;11.000;2022-12-07T02:21:00;7.70;69.20
13093;DHT22;6612;49.568;11.000;2022-12-07T02:23:49;7.90;69.40
13093;DHT22;6612;49.568;11.000;2022-12-07T02:26:45;7.80;68.90
13093;DHT22;6612;49.568;11.000;2022-12-07T02:29:21;7.80;68.80
13093;DHT22;6612;49.568;11.000;2022-12-07T02:31:55;7.70;69.10
13093;DHT22;6612;49.568;11.000;2022-12-07T02:34:29;7.80;69.30
13093;DHT22;6612;49.568;11.000;2022-12-07T02:37:02;7.70;70.00
13093;DHT22;6612;49.568;11.000;2022-12-07T02:39:37;7.80;69.40
13093;DHT22;6612;49.568;11.000;2022-12-07T02:42:12;7.70;69.20
13093;DHT22;6612;49.568;11.000;2022-12-07T02:44:42;7.70;69.10
13093;DHT22;6612;49.568;11.000;2022-12-07T02:47:13;7.80;69.00
13093;DHT22;6612;49.568;11.000;2022-12-07T02:49:41;7.70;68.50
13093;DHT22;6612;49.568;11.000;2022-12-07T02:52:09;7.60;68.40
13093;DHT22;6612;49.568;11.000;2022-12-07T02:54:36;7.60;68.20
13093;DHT22;6612;49.568;11.000;2022-12-07T02:57:14;7.50;67.90
13093;DHT22;6612;49.568;11.000;2022-12-07T02:59:56;7.50;67.60
13093;DHT22;6612;49.568;11.000;2022-12-07T03:02:31;7.40;67.30
13093;DHT22;6612;49.568;11.000;2022-12-07T03:05:13;7.30;67.50
13093;DHT22;6612;49.568;11.000;2022-12-07T03:07:48;7.30;67.50
13093;DHT22;6612;49.568;11.000;2022-12-07T03:10:22;7.30;67.90
13093;DHT22;6612;49.568;11.000;2022-12-07T03:12:58;7.20;68.00
13093;DHT22;6612;49.568;11.000;2022-12-07T03:15:32;7.20;68.10
13093;DHT22;6612;49.568;11.000;2022-12-07T03:18:01;7.10;68.20
13093;DHT22;6612;49.568;11.000;2022-12-07T03:20:30;7.10;69.30
13093;DHT22;6612;49.568;11.000;2022-12-07T03:22:59;7.10;68.80
13093;DHT22;6612;49.568;11.000;2022-12-07T03:25:27;7.10;68.90
13093;DHT22;6612;49.568;11.000;2022-12-07T03:27:58;7.10;69.00
13093;DHT22;6612;49.568;11.000;2022-12-07T03:30:30;7.10;69.00
13093;DHT22;6612;49.568;11.000;2022-12-07T03:33:02;7.10;69.10
13093;DHT22;6612;49.568;11.000;2022-12-07T03:35:33;7.10;69.00
13093;DHT22;6612;49.568;11.000;2022-12-07T03:38:07;7.10;68.90
13093;DHT22;6612;49.568;11.000;2022-12-07T03:40:40;7.10;68.40
13093;DHT22;6612;49.568;11.000;2022-12-07T03:43:07;7.10;67.90
13093;DHT22;6612;49.568;11.000;2022-12-07T03:45:39;7.00;67.60
13093;DHT22;6612;49.568;11.000;2022-12-07T03:48:09;7.00;67.80
13093;DHT22;6612;49.568;11.000;2022-12-07T03:50:41;6.90;66.70
13093;DHT22;6612;49.568;11.000;2022-12-07T03:53:13;6.80;66.30
13093;DHT22;6612;49.568;11.000;2022-12-07T03:55:44;6.80;66.20
13093;DHT22;6612;49.568;11.000;2022-12-07T03:58:15;6.70;66.10
13093;DHT22;6612;49.568;11.000;2022-12-07T04:00:44;6.60;66.20
13093;DHT22;6612;49.568;11.000;2022-12-07T04:03:11;6.50;66.30
13093;DHT22;6612;49.568;11.000;2022-12-07T04:05:39;6.50;66.60
13093;DHT22;6612;49.568;11.000;2022-12-07T04:08:06;6.40;66.80
13093;DHT22;6612;49.568;11.000;2022-12-07T04:10:33;6.40;67.20
13093;DHT22;6612;49.568;11.000;2022-12-07T04:13:00;6.30;67.30
13093;DHT22;6612;49.568;11.000;2022-12-07T04:15:27;6.30;67.60
13093;DHT22;6612;49.568;11.000;2022-12-07T04:17:55;6.30;67.90
13093;DHT22;6612;49.568;11.000;2022-12-07T04:20:22;6.30;68.10
13093;DHT22;6612;49.568;11.000;2022-12-07T04:22:49;6.20;68.40
13093;DHT22;6612;49.568;11.000;2022-12-07T04:25:17;6.20;68.70
13093;DHT22;6612;49.568;11.000;2022-12-07T04:27:43;6.30;69.10
13093;DHT22;6612;49.568;11.000;2022-12-07T04:30:11;6.30;69.30
13093;DHT22;6612;49.568;11.000;2022-12-07T04:32:38;6.30;69.50
13093;DHT22;6612;49.568;11.000;2022-12-07T04:35:07;6.30;69.60
13093;DHT22;6612;49.568;11.000;2022-12-07T04:37:34;6.40;69.80
13093;DHT22;6612;49.568;11.000;2022-12-07T04:40:01;6.40;69.90
13093;DHT22;6612;49.568;11.000;2022-12-07T04:42:28;6.40;69.90
13093;DHT22;6612;49.568;11.000;2022-12-07T04:44:55;6.50;70.00
13093;DHT22;6612;49.568;11.000;2022-12-07T04:47:22;6.40;69.90
13093;DHT22;6612;49.568;11.000;2022-12-07T04:49:49;6.50;70.00
13093;DHT22;6612;49.568;11.000;2022-12-07T04:52:17;6.60;70.10
13093;DHT22;6612;49.568;11.000;2022-12-07T04:54:44;6.60;70.00
13093;DHT22;6612;49.568;11.000;2022-12-07T04:57:11;6.60;70.10
13093;DHT22;6612;49.568;11.000;2022-12-07T04:59:38;6.60;70.10
13093;DHT22;6612;49.568;11.000;2022-12-07T05:02:05;6.80;70.30
13093;DHT22;6612;49.568;11.000;2022-12-07T05:04:31;6.70;70.20
13093;DHT22;6612;49.568;11.000;2022-12-07T05:06:58;6.70;70.20
13093;DHT22;6612;49.568;11.000;2022-12-07T05:09:27;6.70;70.20
13093;DHT22;6612;49.568;11.000;2022-12-07T05:11:54;6.80;70.20
13093;DHT22;6612;49.568;11.000;2022-12-07T05:14:21;6.80;70.30
13093;DHT22;6612;49.568;11.000;2022-12-07T05:16:49;6.80;70.30
13093;DHT22;6612;49.568;11.000;2022-12-07T05:19:17;6.90;70.30
13093;DHT22;6612;49.568;11.000;2022-12-07T05:21:44;6.90;70.30
13093;DHT22;6612;49.568;11.000;2022-12-07T05:24:13;6.90;70.20
13093;DHT22;6612;49.568;11.000;2022-12-07T05:26:41;6.90;70.20
13093;DHT22;6612;49.568;11.000;2022-12-07T05:29:11;7.00;70.20
13093;DHT22;6612;49.568;11.000;2022-12-07T05:31:38;7.00;70.10
13093;DHT22;6612;49.568;11.000;2022-12-07T05:34:06;7.00;70.30
13093;DHT22;6612;49.568;11.000;2022-12-07T05:36:33;7.00;70.20
13093;DHT22;6612;49.568;11.000;2022-12-07T05:39:00;7.00;70.20
13093;DHT22;6612;49.568;11.000;2022-12-07T05:41:27;7.00;70.20
13093;DHT22;6612;49.568;11.000;2022-12-07T05:44:21;7.10;70.30
13093;DHT22;6612;49.568;11.000;2022-12-07T05:46:47;7.10;70.10
13093;DHT22;6612;49.568;11.000;2022-12-07T05:49:15;7.10;70.20
13093;DHT22;6612;49.568;11.000;2022-12-07T05:51:41;7.10;70.20
13093;DHT22;6612;49.568;11.000;2022-12-07T05:54:08;7.10;70.60
13093;DHT22;6612;49.568;11.000;2022-12-07T05:56:35;7.10;70.00
13093;DHT22;6612;49.568;11.000;2022-12-07T05:59:03;7.10;70.00
13093;DHT22;6612;49.568;11.000;2022-12-07T06:01:48;7.10;70.00
13093;DHT22;6612;49.568;11.000;2022-12-07T06:04:15;7.20;69.90
13093;DHT22;6612;49.568;11.000;2022-12-07T06:06:42;7.10;69.80
13093;DHT22;6612;49.568;11.000;2022-12-07T06:09:09;7.10;69.80
13093;DHT22;6612;49.568;11.000;2022-12-07T06:11:37;7.20;69.80
13093;DHT22;6612;49.568;11.000;2022-12-07T06:14:21;7.20;69.80
13093;DHT22;6612;49.568;11.000;2022-12-07T06:16:49;7.10;69.60
13093;DHT22;6612;49.568;11.000;2022-12-07T06:19:16;7.20;69.60
13093;DHT22;6612;49.568;11.000;2022-12-07T06:21:43;7.20;69.70
13093;DHT22;6612;49.568;11.000;2022-12-07T06:24:11;7.20;69.80
13093;DHT22;6612;49.568;11.000;2022-12-07T06:26:39;7.20;69.70
13093;DHT22;6612;49.568;11.000;2022-12-07T06:29:06;7.20;69.90
13093;DHT22;6612;49.568;11.000;2022-12-07T06:31:33;7.20;69.80
13093;DHT22;6612;49.568;11.000;2022-12-07T06:34:02;7.20;69.90
13093;DHT22;6612;49.568;11.000;2022-12-07T06:36:30;7.20;69.80
13093;DHT22;6612;49.568;11.000;2022-12-07T06:38:57;7.20;69.90
13093;DHT22;6612;49.568;11.000;2022-12-07T06:41:24;7.20;69.80
13093;DHT22;6612;49.568;11.000;2022-12-07T06:43:51;7.20;69.80
13093;DHT22;6612;49.568;11.000;2022-12-07T06:46:18;7.20;70.50
13093;DHT22;6612;49.568;11.000;2022-12-07T06:48:45;7.20;69.80
13093;DHT22;6612;49.568;11.000;2022-12-07T06:51:13;7.20;69.80
13093;DHT22;6612;49.568;11.000;2022-12-07T06:53:40;7.20;69.60
13093;DHT22;6612;49.568;11.000;2022-12-07T06:56:07;7.30;69.80
13093;DHT22;6612;49.568;11.000;2022-12-07T06:58:34;7.30;69.80
13093;DHT22;6612;49.568;11.000;2022-12-07T07:01:01;7.30;69.80
13093;DHT22;6612;49.568;11.000;2022-12-07T07:03:28;7.30;69.90
13093;DHT22;6612;49.568;11.000;2022-12-07T07:05:55;7.30;69.90
13093;DHT22;6612;49.568;11.000;2022-12-07T07:08:23;7.30;69.80
13093;DHT22;6612;49.568;11.000;2022-12-07T07:10:50;7.40;69.80
13093;DHT22;6612;49.568;11.000;2022-12-07T07:13:17;7.40;69.90
13093;DHT22;6612;49.568;11.000;2022-12-07T07:15:44;7.40;70.00
13093;DHT22;6612;49.568;11.000;2022-12-07T07:18:11;7.40;70.00
13093;DHT22;6612;49.568;11.000;2022-12-07T07:20:40;7.40;70.00
13093;DHT22;6612;49.568;11.000;2022-12-07T07:23:07;7.40;69.90
13093;DHT22;6612;49.568;11.000;2022-12-07T07:25:35;7.40;70.00
13093;DHT22;6612;49.568;11.000;2022-12-07T07:28:02;7.40;69.90
13093;DHT22;6612;49.568;11.000;2022-12-07T07:30:29;7.40;70.00
13093;DHT22;6612;49.568;11.000;2022-12-07T07:32:57;7.50;70.10
13093;DHT22;6612;49.568;11.000;2022-12-07T07:35:24;7.50;70.10
13093;DHT22;6612;49.568;11.000;2022-12-07T07:37:51;7.50;70.10
13093;DHT22;6612;49.568;11.000;2022-12-07T07:40:18;7.50;70.10
13093;DHT22;6612;49.568;11.000;2022-12-07T07:42:48;7.50;70.40
13093;DHT22;6612;49.568;11.000;2022-12-07T07:45:15;7.60;69.90
13093;DHT22;6612;49.568;11.000;2022-12-07T07:47:42;7.60;70.10
13093;DHT22;6612;49.568;11.000;2022-12-07T07:50:10;7.60;70.20
13093;DHT22;6612;49.568;11.000;2022-12-07T07:52:37;7.60;70.20
13093;DHT22;6612;49.568;11.000;2022-12-07T07:55:05;7.60;70.20
13093;DHT22;6612;49.568;11.000;2022-12-07T07:57:34;7.60;70.10
13093;DHT22;6612;49.568;11.000;2022-12-07T08:00:03;7.70;70.20
13093;DHT22;6612;49.568;11.000;2022-12-07T08:02:31;7.70;70.00
13093;DHT22;6612;49.568;11.000;2022-12-07T08:04:58;7.70;70.20
13093;DHT22;6612;49.568;11.000;2022-12-07T08:07:25;7.70;70.20
13093;DHT22;6612;49.568;11.000;2022-12-07T08:09:53;7.80;70.40
13093;DHT22;6612;49.568;11.000;2022-12-07T08:12:20;7.80;70.30
13093;DHT22;6612;49.568;11.000;2022-12-07T08:14:47;7.80;70.30
13093;DHT22;6612;49.568;11.000;2022-12-07T08:17:15;7.80;70.20
13093;DHT22;6612;49.568;11.000;2022-12-07T08:19:42;7.80;70.10
13093;DHT22;6612;49.568;11.000;2022-12-07T08:22:09;7.80;70.20
13093;DHT22;6612;49.568;11.000;2022-12-07T08:24:36;7.90;70.30
13093;DHT22;6612;49.568;11.000;2022-12-07T08:27:03;7.90;70.30
13093;DHT22;6612;49.568;11.000;2022-12-07T08:29:31;7.90;70.30
13093;DHT22;6612;49.568;11.000;2022-12-07T08:31:57;7.90;70.30
13093;DHT22;6612;49.568;11.000;2022-12-07T08:34:28;7.90;70.20
13093;DHT22;6612;49.568;11.000;2022-12-07T08:36:55;8.00;70.20
13093;DHT22;6612;49.568;11.000;2022-12-07T08:39:22;8.00;70.20
13093;DHT22;6612;49.568;11.000;2022-12-07T08:41:49;8.00;70.30
13093;DHT22;6612;49.568;11.000;2022-12-07T08:44:16;8.00;70.30
13093;DHT22;6612;49.568;11.000;2022-12-07T08:46:45;8.10;70.40
13093;DHT22;6612;49.568;11.000;2022-12-07T08:49:17;8.10;70.10
13093;DHT22;6612;49.568;11.000;2022-12-07T08:51:46;8.10;70.10
13093;DHT22;6612;49.568;11.000;2022-12-07T08:54:16;8.10;70.20
13093;DHT22;6612;49.568;11.000;2022-12-07T08:56:44;8.20;70.30
13093;DHT22;6612;49.568;11.000;2022-12-07T08:59:13;8.20;70.30
13093;DHT22;6612;49.568;11.000;2022-12-07T09:01:41;8.20;70.10
13093;DHT22;6612;49.568;11.000;2022-12-07T09:04:08;8.20;70.10
13093;DHT22;6612;49.568;11.000;2022-12-07T09:06:35;8.20;70.10
13093;DHT22;6612;49.568;11.000;2022-12-07T09:09:04;8.20;70.10
13093;DHT22;6612;49.568;11.000;2022-12-07T09:11:32;8.30;70.00
13093;DHT22;6612;49.568;11.000;2022-12-07T09:13:59;8.30;70.30
13093;DHT22;6612;49.568;11.000;2022-12-07T09:16:26;8.30;70.30
13093;DHT22;6612;49.568;11.000;2022-12-07T09:18:53;8.20;70.20
13093;DHT22;6612;49.568;11.000;2022-12-07T09:21:19;8.30;70.20
13093;DHT22;6612;49.568;11.000;2022-12-07T09:23:46;8.20;70.00
13093;DHT22;6612;49.568;11.000;2022-12-07T09:26:15;8.30;70.00
13093;DHT22;6612;49.568;11.000;2022-12-07T09:28:42;8.40;69.90
13093;DHT22;6612;49.568;11.000;2022-12-07T09:31:08;8.40;70.00
13093;DHT22;6612;49.568;11.000;2022-12-07T09:33:35;8.40;69.90
13093;DHT22;6612;49.568;11.000;2022-12-07T09:36:03;8.40;70.00
13093;DHT22;6612;49.568;11.000;2022-12-07T09:38:31;8.40;70.00
13093;DHT22;6612;49.568;11.000;2022-12-07T09:41:04;8.40;70.10
13093;DHT22;6612;49.568;11.000;2022-12-07T09:43:35;8.50;69.80
13093;DHT22;6612;49.568;11.000;2022-12-07T09:46:03;8.60;70.20
13093;DHT22;6612;49.568;11.000;2022-12-07T09:48:33;8.50;70.20
13093;DHT22;6612;49.568;11.000;2022-12-07T09:51:02;8.50;70.00
13093;DHT22;6612;49.568;11.000;2022-12-07T09:53:33;8.50;70.00
13093;DHT22;6612;49.568;11.000;2022-12-07T09:56:01;8.50;69.80
13093;DHT22;6612;49.568;11.000;2022-12-07T09:58:30;8.50;69.90
13093;DHT22;6612;49.568;11.000;2022-12-07T10:01:01;8.50;69.90
13093;DHT22;6612;49.568;11.000;2022-12-07T10:03:32;8.50;69.80
13093;DHT22;6612;49.568;11.000;2022-12-07T10:05:59;8.50;70.00
13093;DHT22;6612;49.568;11.000;2022-12-07T10:08:26;8.50;70.00
13093;DHT22;6612;49.568;11.000;2022-12-07T10:10:55;8.60;70.20
13093;DHT22;6612;49.568;11.000;2022-12-07T10:13:33;8.60;70.90
13093;DHT22;6612;49.568;11.000;2022-12-07T10:16:02;8.60;70.20
13093;DHT22;6612;49.568;11.000;2022-12-07T10:18:31;8.70;70.20
13093;DHT22;6612;49.568;11.000;2022-12-07T10:21:10;8.70;70.30
13093;DHT22;6612;49.568;11.000;2022-12-07T10:23:40;8.70;69.80
13093;DHT22;6612;49.568;11.000;2022-12-07T10:26:21;8.70;70.10
13093;DHT22;6612;49.568;11.000;2022-12-07T10:28:52;8.70;69.40
13093;DHT22;6612;49.568;11.000;2022-12-07T10:31:22;8.80;70.30
13093;DHT22;6612;49.568;11.000;2022-12-07T10:33:51;8.80;70.00
13093;DHT22;6612;49.568;11.000;2022-12-07T10:36:22;8.80;70.10
13093;DHT22;6612;49.568;11.000;2022-12-07T10:38:51;8.80;70.00
13093;DHT22;6612;49.568;11.000;2022-12-07T10:41:19;8.80;69.90
13093;DHT22;6612;49.568;11.000;2022-12-07T10:43:48;8.80;70.00
13093;DHT22;6612;49.568;11.000;2022-12-07T10:52:45;8.90;69.10
13093;DHT22;6612;49.568;11.000;2022-12-07T10:55:21;8.90;69.40
13093;DHT22;6612;49.568;11.000;2022-12-07T10:58:02;8.90;69.50
13093;DHT22;6612;49.568;11.000;2022-12-07T11:00:35;8.90;69.60
13093;DHT22;6612;49.568;11.000;2022-12-07T11:03:26;8.90;69.70
13093;DHT22;6612;49.568;11.000;2022-12-07T11:05:58;9.00;69.00
13093;DHT22;6612;49.568;11.000;2022-12-07T11:08:44;9.00;69.90
13093;DHT22;6612;49.568;11.000;2022-12-07T11:11:14;9.00;69.30
13093;DHT22;6612;49.568;11.000;2022-12-07T11:13:48;8.90;69.90
13093;DHT22;6612;49.568;11.000;2022-12-07T11:16:25;9.00;69.90
13093;DHT22;6612;49.568;11.000;2022-12-07T11:19:24;9.10;70.10
13093;DHT22;6612;49.568;11.000;2022-12-07T11:21:56;9.10;69.50
13093;DHT22;6612;49.568;11.000;2022-12-07T11:24:27;9.10;70.30
13093;DHT22;6612;49.568;11.000;2022-12-07T11:27:09;9.20;70.30
13093;DHT22;6612;49.568;11.000;2022-12-07T11:32:54;9.20;69.50
13093;DHT22;6612;49.568;11.000;2022-12-07T11:35:31;9.30;69.50
13093;DHT22;6612;49.568;11.000;2022-12-07T11:38:13;9.30;69.90
13093;DHT22;6612;49.568;11.000;2022-12-07T11:40:44;9.30;69.70
13093;DHT22;6612;49.568;11.000;2022-12-07T11:43:18;9.30;70.10
13093;DHT22;6612;49.568;11.000;2022-12-07T11:45:47;9.30;70.00
13093;DHT22;6612;49.568;11.000;2022-12-07T11:48:24;9.30;70.00
13093;DHT22;6612;49.568;11.000;2022-12-07T11:50:57;9.30;69.60
13093;DHT22;6612;49.568;11.000;2022-12-07T11:53:29;9.40;69.60
13093;DHT22;6612;49.568;11.000;2022-12-07T11:56:03;9.40;69.60
13093;DHT22;6612;49.568;11.000;2022-12-07T11:58:47;9.40;69.30
13093;DHT22;6612;49.568;11.000;2022-12-07T12:01:25;9.40;68.60
13093;DHT22;6612;49.568;11.000;2022-12-07T12:03:58;9.30;68.80
13093;DHT22;6612;49.568;11.000;2022-12-07T12:06:29;9.30;69.00
13093;DHT22;6612;49.568;11.000;2022-12-07T12:09:03;9.40;69.30
13093;DHT22;6612;49.568;11.000;2022-12-07T12:11:44;9.30;68.90
13093;DHT22;6612;49.568;11.000;2022-12-07T12:14:26;9.40;68.80
13093;DHT22;6612;49.568;11.000;2022-12-07T12:17:27;9.40;68.90
13093;DHT22;6612;49.568;11.000;2022-12-07T12:20:02;9.40;68.90
13093;DHT22;6612;49.568;11.000;2022-12-07T12:22:36;9.30;69.30
13093;DHT22;6612;49.568;11.000;2022-12-07T12:25:06;9.40;69.00
13093;DHT22;6612;49.568;11.000;2022-12-07T12:27:35;9.40;69.20
13093;DHT22;6612;49.568;11.000;2022-12-07T12:30:06;9.40;69.30
13093;DHT22;6612;49.568;11.000;2022-12-07T12:32:38;9.30;69.00
13093;DHT22;6612;49.568;11.000;2022-12-07T12:35:27;9.40;69.00
13093;DHT22;6612;49.568;11.000;2022-12-07T12:38:27;9.30;68.20
13093;DHT22;6612;49.568;11.000;2022-12-07T12:40:56;9.30;68.10
13093;DHT22;6612;49.568;11.000;2022-12-07T12:43:54;9.30;69.10
13093;DHT22;6612;49.568;11.000;2022-12-07T12:46:47;9.30;68.00
13093;DHT22;6612;49.568;11.000;2022-12-07T12:49:34;9.30;68.60
13093;DHT22;6612;49.568;11.000;2022-12-07T12:52:27;9.30;68.60
13093;DHT22;6612;49.568;11.000;2022-12-07T12:55:00;9.30;69.30
13093;DHT22;6612;49.568;11.000;2022-12-07T12:57:29;9.30;68.60
13093;DHT22;6612;49.568;11.000;2022-12-07T12:59:57;9.30;69.10
13093;DHT22;6612;49.568;11.000;2022-12-07T13:02:26;9.30;69.20
13093;DHT22;6612;49.568;11.000;2022-12-07T13:04:55;9.30;69.10
13093;DHT22;6612;49.568;11.000;2022-12-07T13:07:57;9.30;69.10
13093;DHT22;6612;49.568;11.000;2022-12-07T13:10:44;9.30;68.10
13093;DHT22;6612;49.568;11.000;2022-12-07T13:13:39;9.30;68.20
13093;DHT22;6612;49.568;11.000;2022-12-07T13:22:47;9.30;68.20
13093;DHT22;6612;49.568;11.000;2022-12-07T13:25:26;9.30;68.10
13093;DHT22;6612;49.568;11.000;2022-12-07T13:28:01;9.30;69.00
13093;DHT22;6612;49.568;11.000;2022-12-07T13:30:29;9.20;69.00
13093;DHT22;6612;49.568;11.000;2022-12-07T13:32:58;9.20;69.10
13093;DHT22;6612;49.568;11.000;2022-12-07T13:35:33;9.20;69.00
13093;DHT22;6612;49.568;11.000;2022-12-07T13:38:05;9.30;68.70
13093;DHT22;6612;49.568;11.000;2022-12-07T13:40:41;9.20;68.70
13093;DHT22;6612;49.568;11.000;2022-12-07T13:43:15;9.30;69.10
13093;DHT22;6612;49.568;11.000;2022-12-07T13:45:43;9.20;68.50
13093;DHT22;6612;49.568;11.000;2022-12-07T13:48:21;9.20;69.00
13093;DHT22;6612;49.568;11.000;2022-12-07T13:50:54;9.20;68.60
13093;DHT22;6612;49.568;11.000;2022-12-07T13:53:21;9.20;68.60
13093;DHT22;6612;49.568;11.000;2022-12-07T13:55:49;9.20;68.90
13093;DHT22;6612;49.568;11.000;2022-12-07T13:58:18;9.20;68.90
13093;DHT22;6612;49.568;11.000;2022-12-07T14:00:45;9.20;68.60
13093;DHT22;6612;49.568;11.000;2022-12-07T14:03:28;9.30;68.90
13093;DHT22;6612;49.568;11.000;2022-12-07T14:06:25;9.20;67.80
13093;DHT22;6612;49.568;11.000;2022-12-07T14:09:14;9.20;68.00
13093;DHT22;6612;49.568;11.000;2022-12-07T14:11:44;9.20;68.60
13093;DHT22;6612;49.568;11.000;2022-12-07T14:14:16;9.20;68.70
13093;DHT22;6612;49.568;11.000;2022-12-07T14:16:56;9.20;68.60
13093;DHT22;6612;49.568;11.000;2022-12-07T14:19:42;9.20;68.30
13093;DHT22;6612;49.568;11.000;2022-12-07T14:22:28;9.10;67.90
13093;DHT22;6612;49.568;11.000;2022-12-07T14:25:19;9.20;68.30
13093;DHT22;6612;49.568;11.000;2022-12-07T14:27:53;9.10;67.80
13093;DHT22;6612;49.568;11.000;2022-12-07T14:30:24;9.10;68.30
13093;DHT22;6612;49.568;11.000;2022-12-07T14:32:53;9.10;68.40
13093;DHT22;6612;49.568;11.000;2022-12-07T14:35:20;9.10;68.40
13093;DHT22;6612;49.568;11.000;2022-12-07T14:37:48;9.10;68.50
13093;DHT22;6612;49.568;11.000;2022-12-07T14:40:18;9.10;68.40
13093;DHT22;6612;49.568;11.000;2022-12-07T14:42:47;9.00;68.10
13093;DHT22;6612;49.568;11.000;2022-12-07T14:45:17;9.00;68.20
13093;DHT22;6612;49.568;11.000;2022-12-07T14:47:46;9.00;68.10
13093;DHT22;6612;49.568;11.000;2022-12-07T14:50:15;8.90;67.90
13093;DHT22;6612;49.568;11.000;2022-12-07T14:52:44;8.90;68.00
13093;DHT22;6612;49.568;11.000;2022-12-07T14:55:14;8.90;68.00
13093;DHT22;6612;49.568;11.000;2022-12-07T14:57:43;8.90;67.90
13093;DHT22;6612;49.568;11.000;2022-12-07T15:00:14;8.80;67.90
13093;DHT22;6612;49.568;11.000;2022-12-07T15:02:43;8.80;67.50
13093;DHT22;6612;49.568;11.000;2022-12-07T15:05:11;8.80;67.80
13093;DHT22;6612;49.568;11.000;2022-12-07T15:07:39;8.80;67.60
13093;DHT22;6612;49.568;11.000;2022-12-07T15:10:09;8.70;67.70
13093;DHT22;6612;49.568;11.000;2022-12-07T15:12:39;8.70;67.70
13093;DHT22;6612;49.568;11.000;2022-12-07T15:15:07;8.70;67.80
13093;DHT22;6612;49.568;11.000;2022-12-07T15:17:34;8.70;67.90
13093;DHT22;6612;49.568;11.000;2022-12-07T15:20:01;8.60;67.90
13093;DHT22;6612;49.568;11.000;2022-12-07T15:22:30;8.60;68.00
13093;DHT22;6612;49.568;11.000;2022-12-07T15:24:57;8.60;67.90
13093;DHT22;6612;49.568;11.000;2022-12-07T15:27:24;8.60;68.00
13093;DHT22;6612;49.568;11.000;2022-12-07T15:29:51;8.60;68.00
13093;DHT22;6612;49.568;11.000;2022-12-07T15:32:19;8.50;68.00
13093;DHT22;6612;49.568;11.000;2022-12-07T15:34:46;8.50;68.10
13093;DHT22;6612;49.568;11.000;2022-12-07T15:37:13;8.70;68.40
13093;DHT22;6612;49.568;11.000;2022-12-07T15:39:41;8.50;68.20
13093;DHT22;6612;49.568;11.000;2022-12-07T15:42:08;8.50;68.10
13093;DHT22;6612;49.568;11.000;2022-12-07T15:44:35;8.50;68.20
13093;DHT22;6612;49.568;11.000;2022-12-07T15:47:16;8.50;68.10
13093;DHT22;6612;49.568;11.000;2022-12-07T15:49:43;8.50;68.10
13093;DHT22;6612;49.568;11.000;2022-12-07T15:52:11;8.50;68.10
13093;DHT22;6612;49.568;11.000;2022-12-07T15:54:38;8.50;68.20
13093;DHT22;6612;49.568;11.000;2022-12-07T15:57:06;8.40;68.10
13093;DHT22;6612;49.568;11.000;2022-12-07T15:59:33;8.40;68.00
13093;DHT22;6612;49.568;11.000;2022-12-07T16:02:00;8.40;68.00
13093;DHT22;6612;49.568;11.000;2022-12-07T16:04:28;8.40;67.90
13093;DHT22;6612;49.568;11.000;2022-12-07T16:06:55;8.40;67.90
13093;DHT22;6612;49.568;11.000;2022-12-07T16:09:22;8.40;68.00
13093;DHT22;6612;49.568;11.000;2022-12-07T16:11:49;8.30;67.90
13093;DHT22;6612;49.568;11.000;2022-12-07T16:14:19;8.20;67.80
13093;DHT22;6612;49.568;11.000;2022-12-07T16:16:46;8.20;67.80
13093;DHT22;6612;49.568;11.000;2022-12-07T16:19:13;8.20;68.00
13093;DHT22;6612;49.568;11.000;2022-12-07T16:21:39;8.20;68.10
13093;DHT22;6612;49.568;11.000;2022-12-07T16:24:08;8.30;68.20